sensor_id;sensor_type;location;lat;lon;timestamp;temperature;humidity
53748;DHT22;39655;53.210;5.768;2022-12-20T00:00:26;9.40;91.40
53748;DHT22;39655;53.210;5.768;2022-12-20T00:02:52;9.40;91.20
53748;DHT22;39655;53.210;5.768;2022-12-20T00:05:18;9.40;91.00
53748;DHT22;39655;53.210;5.768;2022-12-20T00:07:43;9.40;91.00
53748;DHT22;39655;53.210;5.768;2022-12-20T00:10:10;9.50;90.90
53748;DHT22;39655;53.210;5.768;2022-12-20T00:12:35;9.50;90.70
53748;DHT22;39655;53.210;5.768;2022-12-20T00:15:01;9.50;90.60
53748;DHT22;39655;53.210;5.768;2022-12-20T00:17:27;9.50;90.60
53748;DHT22;39655;53.210;5.768;2022-12-20T00:19:52;9.60;90.50
53748;DHT22;39655;53.210;5.768;2022-12-20T00:22:18;9.50;90.50
53748;DHT22;39655;53.210;5.768;2022-12-20T00:24:47;9.60;90.30
53748;DHT22;39655;53.210;5.768;2022-12-20T00:27:12;9.60;90.10
53748;DHT22;39655;53.210;5.768;2022-12-20T00:29:39;9.70;90.10
53748;DHT22;39655;53.210;5.768;2022-12-20T00:32:05;9.70;89.80
53748;DHT22;39655;53.210;5.768;2022-12-20T00:34:31;9.70;89.80
53748;DHT22;39655;53.210;5.768;2022-12-20T00:36:56;9.70;89.80
53748;DHT22;39655;53.210;5.768;2022-12-20T00:39:22;9.70;89.90
53748;DHT22;39655;53.210;5.768;2022-12-20T00:41:48;9.70;89.80
53748;DHT22;39655;53.210;5.768;2022-12-20T00:44:13;9.70;89.80
53748;DHT22;39655;53.210;5.768;2022-12-20T00:46:39;9.70;89.60
53748;DHT22;39655;53.210;5.768;2022-12-20T00:49:05;9.70;89.70
53748;DHT22;39655;53.210;5.768;2022-12-20T00:51:31;9.70;89.60
53748;DHT22;39655;53.210;5.768;2022-12-20T00:53:57;9.70;89.50
53748;DHT22;39655;53.210;5.768;2022-12-20T00:56:23;9.60;89.30
53748;DHT22;39655;53.210;5.768;2022-12-20T00:58:49;9.60;89.30
53748;DHT22;39655;53.210;5.768;2022-12-20T01:01:20;9.60;89.40
53748;DHT22;39655;53.210;5.768;2022-12-20T01:03:45;9.60;89.30
53748;DHT22;39655;53.210;5.768;2022-12-20T01:06:11;9.60;89.20
53748;DHT22;39655;53.210;5.768;2022-12-20T01:08:37;9.50;89.20
53748;DHT22;39655;53.210;5.768;2022-12-20T01:11:10;9.50;89.20
53748;DHT22;39655;53.210;5.768;2022-12-20T01:13:37;9.50;89.40
53748;DHT22;39655;53.210;5.768;2022-12-20T01:16:15;9.50;89.30
53748;DHT22;39655;53.210;5.768;2022-12-20T01:18:41;9.40;89.30
53748;DHT22;39655;53.210;5.768;2022-12-20T01:21:09;9.40;89.30
53748;DHT22;39655;53.210;5.768;2022-12-20T01:23:35;9.50;89.30
53748;DHT22;39655;53.210;5.768;2022-12-20T01:26:03;9.40;89.20
53748;DHT22;39655;53.210;5.768;2022-12-20T01:28:30;9.40;89.20
53748;DHT22;39655;53.210;5.768;2022-12-20T01:30:56;9.40;89.30
53748;DHT22;39655;53.210;5.768;2022-12-20T01:33:22;9.40;89.20
53748;DHT22;39655;53.210;5.768;2022-12-20T01:35:59;9.40;89.20
53748;DHT22;39655;53.210;5.768;2022-12-20T01:38:26;9.40;88.90
53748;DHT22;39655;53.210;5.768;2022-12-20T01:40:53;9.40;89.00
53748;DHT22;39655;53.210;5.768;2022-12-20T01:43:20;9.40;88.90
53748;DHT22;39655;53.210;5.768;2022-12-20T01:45:46;9.40;89.00
53748;DHT22;39655;53.210;5.768;2022-12-20T01:48:15;9.40;88.90
53748;DHT22;39655;53.210;5.768;2022-12-20T01:50:42;9.40;89.00
53748;DHT22;39655;53.210;5.768;2022-12-20T01:53:08;9.40;89.10
53748;DHT22;39655;53.210;5.768;2022-12-20T01:55:36;9.40;89.10
53748;DHT22;39655;53.210;5.768;2022-12-20T01:58:08;9.40;89.20
53748;DHT22;39655;53.210;5.768;2022-12-20T02:00:34;9.40;89.30
53748;DHT22;39655;53.210;5.768;2022-12-20T02:03:06;9.40;89.30
53748;DHT22;39655;53.210;5.768;2022-12-20T02:05:35;9.40;89.30
53748;DHT22;39655;53.210;5.768;2022-12-20T02:08:02;9.40;89.30
53748;DHT22;39655;53.210;5.768;2022-12-20T02:10:56;9.40;89.40
53748;DHT22;39655;53.210;5.768;2022-12-20T02:13:44;9.40;89.40
53748;DHT22;39655;53.210;5.768;2022-12-20T02:16:21;9.40;89.50
53748;DHT22;39655;53.210;5.768;2022-12-20T02:19:14;9.40;89.60
53748;DHT22;39655;53.210;5.768;2022-12-20T02:30:22;9.30;90.30
53748;DHT22;39655;53.210;5.768;2022-12-20T02:32:59;9.30;90.60
53748;DHT22;39655;53.210;5.768;2022-12-20T02:35:29;9.30;90.70
53748;DHT22;39655;53.210;5.768;2022-12-20T02:37:58;9.20;90.90
53748;DHT22;39655;53.210;5.768;2022-12-20T02:40:31;9.20;91.20
53748;DHT22;39655;53.210;5.768;2022-12-20T02:43:02;9.20;91.40
53748;DHT22;39655;53.210;5.768;2022-12-20T02:45:32;9.10;91.70
53748;DHT22;39655;53.210;5.768;2022-12-20T02:48:06;9.10;92.20
53748;DHT22;39655;53.210;5.768;2022-12-20T02:50:44;9.10;92.50
53748;DHT22;39655;53.210;5.768;2022-12-20T02:53:11;9.10;92.60
53748;DHT22;39655;53.210;5.768;2022-12-20T02:58:48;9.10;93.00
53748;DHT22;39655;53.210;5.768;2022-12-20T03:01:27;9.10;93.20
53748;DHT22;39655;53.210;5.768;2022-12-20T03:03:56;9.10;93.30
53748;DHT22;39655;53.210;5.768;2022-12-20T03:06:22;9.10;93.30
53748;DHT22;39655;53.210;5.768;2022-12-20T03:08:48;9.10;93.30
53748;DHT22;39655;53.210;5.768;2022-12-20T03:11:14;9.10;93.30
53748;DHT22;39655;53.210;5.768;2022-12-20T03:13:40;9.10;93.40
53748;DHT22;39655;53.210;5.768;2022-12-20T03:16:07;9.20;93.40
53748;DHT22;39655;53.210;5.768;2022-12-20T03:18:33;9.20;93.40
53748;DHT22;39655;53.210;5.768;2022-12-20T03:20:59;9.20;93.40
53748;DHT22;39655;53.210;5.768;2022-12-20T03:23:25;9.20;93.40
53748;DHT22;39655;53.210;5.768;2022-12-20T03:25:51;9.30;93.50
53748;DHT22;39655;53.210;5.768;2022-12-20T03:28:17;9.30;93.60
53748;DHT22;39655;53.210;5.768;2022-12-20T03:30:42;9.30;93.70
53748;DHT22;39655;53.210;5.768;2022-12-20T03:33:08;9.30;93.70
53748;DHT22;39655;53.210;5.768;2022-12-20T03:35:34;9.40;93.80
53748;DHT22;39655;53.210;5.768;2022-12-20T03:38:00;9.40;93.90
53748;DHT22;39655;53.210;5.768;2022-12-20T03:40:26;9.40;93.90
53748;DHT22;39655;53.210;5.768;2022-12-20T03:42:51;9.40;94.00
53748;DHT22;39655;53.210;5.768;2022-12-20T03:45:17;9.40;94.00
53748;DHT22;39655;53.210;5.768;2022-12-20T03:47:43;9.40;94.10
53748;DHT22;39655;53.210;5.768;2022-12-20T03:50:09;9.40;94.30
53748;DHT22;39655;53.210;5.768;2022-12-20T03:52:35;9.40;94.30
53748;DHT22;39655;53.210;5.768;2022-12-20T03:55:01;9.50;94.30
53748;DHT22;39655;53.210;5.768;2022-12-20T03:57:28;9.50;94.40
53748;DHT22;39655;53.210;5.768;2022-12-20T03:59:53;9.50;94.50
53748;DHT22;39655;53.210;5.768;2022-12-20T04:02:19;9.50;94.50
53748;DHT22;39655;53.210;5.768;2022-12-20T04:04:46;9.40;94.60
53748;DHT22;39655;53.210;5.768;2022-12-20T04:07:11;9.40;94.50
53748;DHT22;39655;53.210;5.768;2022-12-20T04:09:37;9.40;94.60
53748;DHT22;39655;53.210;5.768;2022-12-20T04:12:03;9.40;94.70
53748;DHT22;39655;53.210;5.768;2022-12-20T04:14:29;9.40;94.80
53748;DHT22;39655;53.210;5.768;2022-12-20T04:16:54;9.40;94.80
53748;DHT22;39655;53.210;5.768;2022-12-20T04:19:20;9.40;94.70
53748;DHT22;39655;53.210;5.768;2022-12-20T04:21:46;9.50;94.70
53748;DHT22;39655;53.210;5.768;2022-12-20T04:24:12;9.50;94.80
53748;DHT22;39655;53.210;5.768;2022-12-20T04:26:37;9.50;94.70
53748;DHT22;39655;53.210;5.768;2022-12-20T04:29:03;9.60;94.70
53748;DHT22;39655;53.210;5.768;2022-12-20T04:31:29;9.60;94.60
53748;DHT22;39655;53.210;5.768;2022-12-20T04:33:54;9.60;94.60
53748;DHT22;39655;53.210;5.768;2022-12-20T04:36:20;9.60;94.50
53748;DHT22;39655;53.210;5.768;2022-12-20T04:38:46;9.60;94.50
53748;DHT22;39655;53.210;5.768;2022-12-20T04:41:12;9.60;94.40
53748;DHT22;39655;53.210;5.768;2022-12-20T04:43:55;9.70;94.30
53748;DHT22;39655;53.210;5.768;2022-12-20T04:46:23;9.70;94.20
53748;DHT22;39655;53.210;5.768;2022-12-20T04:48:49;9.70;94.00
53748;DHT22;39655;53.210;5.768;2022-12-20T04:51:15;9.70;93.90
53748;DHT22;39655;53.210;5.768;2022-12-20T04:53:41;9.70;93.90
53748;DHT22;39655;53.210;5.768;2022-12-20T04:58:42;9.70;93.70
53748;DHT22;39655;53.210;5.768;2022-12-20T05:01:08;9.70;93.70
53748;DHT22;39655;53.210;5.768;2022-12-20T05:03:34;9.70;93.60
53748;DHT22;39655;53.210;5.768;2022-12-20T05:06:00;9.70;93.50
53748;DHT22;39655;53.210;5.768;2022-12-20T05:08:26;9.70;93.40
53748;DHT22;39655;53.210;5.768;2022-12-20T05:10:52;9.70;93.40
53748;DHT22;39655;53.210;5.768;2022-12-20T05:13:17;9.80;93.40
53748;DHT22;39655;53.210;5.768;2022-12-20T05:15:43;9.80;93.30
53748;DHT22;39655;53.210;5.768;2022-12-20T05:18:09;9.80;93.10
53748;DHT22;39655;53.210;5.768;2022-12-20T05:20:35;9.80;93.10
53748;DHT22;39655;53.210;5.768;2022-12-20T05:23:00;9.80;93.00
53748;DHT22;39655;53.210;5.768;2022-12-20T05:25:47;9.80;93.00
53748;DHT22;39655;53.210;5.768;2022-12-20T05:28:31;9.80;93.00
53748;DHT22;39655;53.210;5.768;2022-12-20T05:30:58;9.80;93.10
53748;DHT22;39655;53.210;5.768;2022-12-20T05:33:24;9.80;93.10
53748;DHT22;39655;53.210;5.768;2022-12-20T05:35:53;9.80;93.10
53748;DHT22;39655;53.210;5.768;2022-12-20T05:38:19;9.80;93.10
53748;DHT22;39655;53.210;5.768;2022-12-20T05:40:46;9.80;93.00
53748;DHT22;39655;53.210;5.768;2022-12-20T05:43:12;9.90;92.90
53748;DHT22;39655;53.210;5.768;2022-12-20T05:45:38;9.90;92.80
53748;DHT22;39655;53.210;5.768;2022-12-20T05:48:04;9.90;92.80
53748;DHT22;39655;53.210;5.768;2022-12-20T05:50:30;9.90;92.70
53748;DHT22;39655;53.210;5.768;2022-12-20T05:52:55;9.90;92.70
53748;DHT22;39655;53.210;5.768;2022-12-20T05:55:21;9.90;92.60
53748;DHT22;39655;53.210;5.768;2022-12-20T05:57:47;9.90;92.50
53748;DHT22;39655;53.210;5.768;2022-12-20T06:00:13;10.00;92.50
53748;DHT22;39655;53.210;5.768;2022-12-20T06:02:39;10.00;92.40
53748;DHT22;39655;53.210;5.768;2022-12-20T06:05:05;10.00;92.40
53748;DHT22;39655;53.210;5.768;2022-12-20T06:07:31;10.10;92.30
53748;DHT22;39655;53.210;5.768;2022-12-20T06:09:57;10.10;92.30
53748;DHT22;39655;53.210;5.768;2022-12-20T06:12:23;10.10;92.30
53748;DHT22;39655;53.210;5.768;2022-12-20T06:14:49;10.10;92.30
53748;DHT22;39655;53.210;5.768;2022-12-20T06:17:15;10.10;92.30
53748;DHT22;39655;53.210;5.768;2022-12-20T06:19:41;10.10;92.30
53748;DHT22;39655;53.210;5.768;2022-12-20T06:22:07;10.10;92.30
53748;DHT22;39655;53.210;5.768;2022-12-20T06:24:34;10.10;92.30
53748;DHT22;39655;53.210;5.768;2022-12-20T06:27:01;10.10;92.30
53748;DHT22;39655;53.210;5.768;2022-12-20T06:29:28;10.10;92.40
53748;DHT22;39655;53.210;5.768;2022-12-20T06:31:54;10.10;92.50
53748;DHT22;39655;53.210;5.768;2022-12-20T06:34:20;10.10;92.70
53748;DHT22;39655;53.210;5.768;2022-12-20T06:36:46;10.10;92.90
53748;DHT22;39655;53.210;5.768;2022-12-20T06:39:12;10.10;93.30
53748;DHT22;39655;53.210;5.768;2022-12-20T06:41:39;10.00;93.50
53748;DHT22;39655;53.210;5.768;2022-12-20T06:44:05;10.00;93.50
53748;DHT22;39655;53.210;5.768;2022-12-20T06:46:31;10.00;93.90
53748;DHT22;39655;53.210;5.768;2022-12-20T06:48:57;9.90;94.00
53748;DHT22;39655;53.210;5.768;2022-12-20T06:51:23;10.00;94.30
53748;DHT22;39655;53.210;5.768;2022-12-20T06:53:49;9.90;94.50
53748;DHT22;39655;53.210;5.768;2022-12-20T06:56:15;9.90;94.60
53748;DHT22;39655;53.210;5.768;2022-12-20T06:58:41;9.90;94.70
53748;DHT22;39655;53.210;5.768;2022-12-20T07:01:06;9.90;94.90
53748;DHT22;39655;53.210;5.768;2022-12-20T07:03:32;9.90;95.00
53748;DHT22;39655;53.210;5.768;2022-12-20T07:05:58;9.90;95.00
53748;DHT22;39655;53.210;5.768;2022-12-20T07:08:24;9.80;95.10
53748;DHT22;39655;53.210;5.768;2022-12-20T07:10:50;9.80;95.20
53748;DHT22;39655;53.210;5.768;2022-12-20T07:13:17;9.80;95.20
53748;DHT22;39655;53.210;5.768;2022-12-20T07:15:43;9.80;95.30
53748;DHT22;39655;53.210;5.768;2022-12-20T07:18:10;9.90;95.20
53748;DHT22;39655;53.210;5.768;2022-12-20T07:20:36;9.80;95.20
53748;DHT22;39655;53.210;5.768;2022-12-20T07:23:02;9.80;95.30
53748;DHT22;39655;53.210;5.768;2022-12-20T07:25:28;9.90;95.30
53748;DHT22;39655;53.210;5.768;2022-12-20T07:27:54;9.90;95.30
53748;DHT22;39655;53.210;5.768;2022-12-20T07:30:20;9.90;95.30
53748;DHT22;39655;53.210;5.768;2022-12-20T07:32:46;9.90;95.30
53748;DHT22;39655;53.210;5.768;2022-12-20T07:35:13;9.90;95.40
53748;DHT22;39655;53.210;5.768;2022-12-20T07:37:39;9.90;95.30
53748;DHT22;39655;53.210;5.768;2022-12-20T07:40:06;9.90;95.40
53748;DHT22;39655;53.210;5.768;2022-12-20T07:42:32;9.90;95.30
53748;DHT22;39655;53.210;5.768;2022-12-20T07:44:58;10.00;95.30
53748;DHT22;39655;53.210;5.768;2022-12-20T07:47:24;9.90;95.20
53748;DHT22;39655;53.210;5.768;2022-12-20T07:49:50;10.00;95.20
53748;DHT22;39655;53.210;5.768;2022-12-20T07:52:18;10.00;95.20
53748;DHT22;39655;53.210;5.768;2022-12-20T07:54:55;9.90;95.10
53748;DHT22;39655;53.210;5.768;2022-12-20T07:57:33;9.90;95.00
53748;DHT22;39655;53.210;5.768;2022-12-20T08:00:01;9.90;95.00
53748;DHT22;39655;53.210;5.768;2022-12-20T08:02:37;9.90;94.90
53748;DHT22;39655;53.210;5.768;2022-12-20T08:05:06;9.90;94.90
53748;DHT22;39655;53.210;5.768;2022-12-20T08:07:33;9.80;94.90
53748;DHT22;39655;53.210;5.768;2022-12-20T08:09:59;9.80;94.90
53748;DHT22;39655;53.210;5.768;2022-12-20T08:12:27;9.80;94.90
53748;DHT22;39655;53.210;5.768;2022-12-20T08:14:54;9.80;94.80
53748;DHT22;39655;53.210;5.768;2022-12-20T08:17:21;9.70;94.80
53748;DHT22;39655;53.210;5.768;2022-12-20T08:19:47;9.70;94.80
53748;DHT22;39655;53.210;5.768;2022-12-20T08:22:19;9.70;94.80
53748;DHT22;39655;53.210;5.768;2022-12-20T08:24:45;9.70;94.80
53748;DHT22;39655;53.210;5.768;2022-12-20T08:27:11;9.70;94.70
53748;DHT22;39655;53.210;5.768;2022-12-20T08:29:36;9.70;94.70
53748;DHT22;39655;53.210;5.768;2022-12-20T08:32:02;9.70;94.70
53748;DHT22;39655;53.210;5.768;2022-12-20T08:34:28;9.70;94.70
53748;DHT22;39655;53.210;5.768;2022-12-20T08:36:55;9.70;94.60
53748;DHT22;39655;53.210;5.768;2022-12-20T08:39:20;9.70;94.50
53748;DHT22;39655;53.210;5.768;2022-12-20T08:41:46;9.70;94.30
53748;DHT22;39655;53.210;5.768;2022-12-20T08:44:12;9.80;94.30
53748;DHT22;39655;53.210;5.768;2022-12-20T08:46:38;9.80;94.20
53748;DHT22;39655;53.210;5.768;2022-12-20T08:49:04;9.80;94.00
53748;DHT22;39655;53.210;5.768;2022-12-20T08:51:30;9.80;94.00
53748;DHT22;39655;53.210;5.768;2022-12-20T08:53:56;9.90;93.80
53748;DHT22;39655;53.210;5.768;2022-12-20T08:56:22;9.90;93.70
53748;DHT22;39655;53.210;5.768;2022-12-20T08:58:48;9.90;93.50
53748;DHT22;39655;53.210;5.768;2022-12-20T09:01:16;10.00;93.40
53748;DHT22;39655;53.210;5.768;2022-12-20T09:03:42;10.00;93.20
53748;DHT22;39655;53.210;5.768;2022-12-20T09:06:16;10.00;93.10
53748;DHT22;39655;53.210;5.768;2022-12-20T09:08:42;10.10;93.00
53748;DHT22;39655;53.210;5.768;2022-12-20T09:11:12;10.10;92.90
53748;DHT22;39655;53.210;5.768;2022-12-20T09:13:38;10.10;92.80
53748;DHT22;39655;53.210;5.768;2022-12-20T09:16:05;10.10;92.70
53748;DHT22;39655;53.210;5.768;2022-12-20T09:18:32;10.10;92.50
53748;DHT22;39655;53.210;5.768;2022-12-20T09:21:02;10.20;92.00
53748;DHT22;39655;53.210;5.768;2022-12-20T09:23:28;10.30;91.70
53748;DHT22;39655;53.210;5.768;2022-12-20T09:25:54;10.30;91.20
53748;DHT22;39655;53.210;5.768;2022-12-20T09:28:21;10.40;91.10
53748;DHT22;39655;53.210;5.768;2022-12-20T09:30:47;10.40;90.90
53748;DHT22;39655;53.210;5.768;2022-12-20T09:33:12;10.50;90.40
53748;DHT22;39655;53.210;5.768;2022-12-20T09:35:45;10.50;90.40
53748;DHT22;39655;53.210;5.768;2022-12-20T09:38:12;10.50;90.20
53748;DHT22;39655;53.210;5.768;2022-12-20T09:40:43;10.50;90.20
53748;DHT22;39655;53.210;5.768;2022-12-20T09:43:10;10.50;90.10
53748;DHT22;39655;53.210;5.768;2022-12-20T09:45:37;10.50;90.00
53748;DHT22;39655;53.210;5.768;2022-12-20T09:48:03;10.50;90.00
53748;DHT22;39655;53.210;5.768;2022-12-20T09:56:07;10.50;90.20
53748;DHT22;39655;53.210;5.768;2022-12-20T09:59:07;10.50;90.40
53748;DHT22;39655;53.210;5.768;2022-12-20T10:01:36;10.40;90.60
53748;DHT22;39655;53.210;5.768;2022-12-20T10:04:14;10.40;90.80
53748;DHT22;39655;53.210;5.768;2022-12-20T10:09:52;10.40;91.00
53748;DHT22;39655;53.210;5.768;2022-12-20T10:15:06;10.40;91.30
53748;DHT22;39655;53.210;5.768;2022-12-20T10:17:54;10.40;91.40
53748;DHT22;39655;53.210;5.768;2022-12-20T10:23:16;10.40;91.50
53748;DHT22;39655;53.210;5.768;2022-12-20T10:25:56;10.40;91.50
53748;DHT22;39655;53.210;5.768;2022-12-20T10:28:28;10.40;91.50
53748;DHT22;39655;53.210;5.768;2022-12-20T10:31:02;10.40;91.50
53748;DHT22;39655;53.210;5.768;2022-12-20T10:33:30;10.40;91.50
53748;DHT22;39655;53.210;5.768;2022-12-20T10:36:16;10.40;91.40
53748;DHT22;39655;53.210;5.768;2022-12-20T10:38:47;10.40;91.40
53748;DHT22;39655;53.210;5.768;2022-12-20T10:41:16;10.40;91.40
53748;DHT22;39655;53.210;5.768;2022-12-20T10:43:45;10.40;91.30
53748;DHT22;39655;53.210;5.768;2022-12-20T10:46:13;10.40;91.30
53748;DHT22;39655;53.210;5.768;2022-12-20T10:48:42;10.40;91.40
53748;DHT22;39655;53.210;5.768;2022-12-20T10:53:51;10.40;91.50
53748;DHT22;39655;53.210;5.768;2022-12-20T10:56:34;10.40;91.50
53748;DHT22;39655;53.210;5.768;2022-12-20T11:01:44;10.40;91.70
53748;DHT22;39655;53.210;5.768;2022-12-20T11:04:33;10.40;91.70
53748;DHT22;39655;53.210;5.768;2022-12-20T11:07:01;10.40;91.80
53748;DHT22;39655;53.210;5.768;2022-12-20T11:09:35;10.40;91.90
53748;DHT22;39655;53.210;5.768;2022-12-20T11:12:08;10.40;91.90
53748;DHT22;39655;53.210;5.768;2022-12-20T11:14:36;10.40;92.20
53748;DHT22;39655;53.210;5.768;2022-12-20T11:28:38;10.40;93.00
53748;DHT22;39655;53.210;5.768;2022-12-20T11:31:32;10.30;93.00
53748;DHT22;39655;53.210;5.768;2022-12-20T11:45:35;10.30;93.60
53748;DHT22;39655;53.210;5.768;2022-12-20T11:48:33;10.30;93.70
53748;DHT22;39655;53.210;5.768;2022-12-20T11:51:18;10.30;93.70
53748;DHT22;39655;53.210;5.768;2022-12-20T11:54:02;10.30;93.80
53748;DHT22;39655;53.210;5.768;2022-12-20T11:56:39;10.30;93.90
53748;DHT22;39655;53.210;5.768;2022-12-20T11:59:13;10.30;94.00
53748;DHT22;39655;53.210;5.768;2022-12-20T12:04:37;10.20;94.40
53748;DHT22;39655;53.210;5.768;2022-12-20T12:07:13;10.20;94.40
53748;DHT22;39655;53.210;5.768;2022-12-20T12:12:25;10.20;94.50
53748;DHT22;39655;53.210;5.768;2022-12-20T12:17:45;10.20;94.50
53748;DHT22;39655;53.210;5.768;2022-12-20T12:23:21;10.20;94.60
53748;DHT22;39655;53.210;5.768;2022-12-20T12:25:48;10.20;94.60
53748;DHT22;39655;53.210;5.768;2022-12-20T12:28:15;10.30;94.70
53748;DHT22;39655;53.210;5.768;2022-12-20T12:30:59;10.20;94.70
53748;DHT22;39655;53.210;5.768;2022-12-20T12:33:40;10.20;94.70
53748;DHT22;39655;53.210;5.768;2022-12-20T12:43:51;10.20;94.80
53748;DHT22;39655;53.210;5.768;2022-12-20T12:46:21;10.20;94.90
53748;DHT22;39655;53.210;5.768;2022-12-20T12:48:53;10.20;94.80
53748;DHT22;39655;53.210;5.768;2022-12-20T12:51:32;10.20;94.80
53748;DHT22;39655;53.210;5.768;2022-12-20T12:56:39;10.10;94.90
53748;DHT22;39655;53.210;5.768;2022-12-20T13:02:18;10.10;95.00
53748;DHT22;39655;53.210;5.768;2022-12-20T13:04:58;10.10;95.10
53748;DHT22;39655;53.210;5.768;2022-12-20T13:17:52;10.10;95.60
53748;DHT22;39655;53.210;5.768;2022-12-20T13:20:22;10.00;95.80
53748;DHT22;39655;53.210;5.768;2022-12-20T13:33:41;9.90;96.20
53748;DHT22;39655;53.210;5.768;2022-12-20T13:44:17;9.80;96.40
53748;DHT22;39655;53.210;5.768;2022-12-20T13:52:16;9.80;96.40
53748;DHT22;39655;53.210;5.768;2022-12-20T13:54:47;9.80;96.40
53748;DHT22;39655;53.210;5.768;2022-12-20T13:57:16;9.70;96.40
53748;DHT22;39655;53.210;5.768;2022-12-20T13:59:49;9.80;96.40
53748;DHT22;39655;53.210;5.768;2022-12-20T14:02:23;9.70;96.40
53748;DHT22;39655;53.210;5.768;2022-12-20T14:05:15;9.80;96.40
53748;DHT22;39655;53.210;5.768;2022-12-20T14:07:42;9.70;96.40
53748;DHT22;39655;53.210;5.768;2022-12-20T14:10:22;9.80;96.40
53748;DHT22;39655;53.210;5.768;2022-12-20T14:12:50;9.70;96.40
53748;DHT22;39655;53.210;5.768;2022-12-20T14:17:46;9.70;96.40
53748;DHT22;39655;53.210;5.768;2022-12-20T14:25:16;9.70;96.50
53748;DHT22;39655;53.210;5.768;2022-12-20T14:27:43;9.70;96.50
53748;DHT22;39655;53.210;5.768;2022-12-20T14:30:35;9.70;96.50
53748;DHT22;39655;53.210;5.768;2022-12-20T14:33:18;9.60;96.50
53748;DHT22;39655;53.210;5.768;2022-12-20T14:35:48;9.60;96.60
53748;DHT22;39655;53.210;5.768;2022-12-20T14:38:28;9.60;96.60
53748;DHT22;39655;53.210;5.768;2022-12-20T14:40:55;9.60;96.60
53748;DHT22;39655;53.210;5.768;2022-12-20T14:43:34;9.50;96.60
53748;DHT22;39655;53.210;5.768;2022-12-20T14:46:17;9.50;96.60
53748;DHT22;39655;53.210;5.768;2022-12-20T14:48:44;9.50;96.70
53748;DHT22;39655;53.210;5.768;2022-12-20T14:51:10;9.50;96.70
53748;DHT22;39655;53.210;5.768;2022-12-20T14:53:38;9.50;96.70
53748;DHT22;39655;53.210;5.768;2022-12-20T14:56:04;9.50;96.70
53748;DHT22;39655;53.210;5.768;2022-12-20T14:58:33;9.50;96.70
53748;DHT22;39655;53.210;5.768;2022-12-20T15:03:59;9.50;96.70
53748;DHT22;39655;53.210;5.768;2022-12-20T15:06:36;9.50;96.60
53748;DHT22;39655;53.210;5.768;2022-12-20T15:09:05;9.50;96.70
53748;DHT22;39655;53.210;5.768;2022-12-20T15:11:31;9.40;96.60
53748;DHT22;39655;53.210;5.768;2022-12-20T15:13:59;9.40;96.70
53748;DHT22;39655;53.210;5.768;2022-12-20T15:16:27;9.40;96.60
53748;DHT22;39655;53.210;5.768;2022-12-20T15:19:01;9.40;96.60
53748;DHT22;39655;53.210;5.768;2022-12-20T15:21:36;9.40;96.60
53748;DHT22;39655;53.210;5.768;2022-12-20T15:24:10;9.40;96.60
53748;DHT22;39655;53.210;5.768;2022-12-20T15:26:37;9.30;96.60
53748;DHT22;39655;53.210;5.768;2022-12-20T15:29:03;9.30;96.60
53748;DHT22;39655;53.210;5.768;2022-12-20T15:31:29;9.30;96.50
53748;DHT22;39655;53.210;5.768;2022-12-20T15:33:57;9.30;96.50
53748;DHT22;39655;53.210;5.768;2022-12-20T15:36:25;9.20;96.50
53748;DHT22;39655;53.210;5.768;2022-12-20T15:38:51;9.20;96.50
53748;DHT22;39655;53.210;5.768;2022-12-20T15:41:25;9.20;96.60
53748;DHT22;39655;53.210;5.768;2022-12-20T15:43:57;9.20;96.60
53748;DHT22;39655;53.210;5.768;2022-12-20T15:46:24;9.20;96.60
53748;DHT22;39655;53.210;5.768;2022-12-20T15:48:51;9.20;96.60
53748;DHT22;39655;53.210;5.768;2022-12-20T15:53:58;9.10;96.60
53748;DHT22;39655;53.210;5.768;2022-12-20T15:56:25;9.20;96.60
53748;DHT22;39655;53.210;5.768;2022-12-20T15:58:51;9.10;96.60
53748;DHT22;39655;53.210;5.768;2022-12-20T16:01:20;9.10;96.60
53748;DHT22;39655;53.210;5.768;2022-12-20T16:03:47;9.10;96.70
53748;DHT22;39655;53.210;5.768;2022-12-20T16:06:13;9.10;96.70
53748;DHT22;39655;53.210;5.768;2022-12-20T16:08:39;9.10;96.70
53748;DHT22;39655;53.210;5.768;2022-12-20T16:11:12;9.10;96.70
53748;DHT22;39655;53.210;5.768;2022-12-20T16:13:39;9.10;96.70
53748;DHT22;39655;53.210;5.768;2022-12-20T16:16:05;9.10;96.70
53748;DHT22;39655;53.210;5.768;2022-12-20T16:18:31;9.10;96.70
53748;DHT22;39655;53.210;5.768;2022-12-20T16:20:57;9.10;96.70
53748;DHT22;39655;53.210;5.768;2022-12-20T16:23:22;9.10;96.80
53748;DHT22;39655;53.210;5.768;2022-12-20T16:25:58;9.10;96.80
53748;DHT22;39655;53.210;5.768;2022-12-20T16:28:24;9.10;96.80
53748;DHT22;39655;53.210;5.768;2022-12-20T16:30:50;9.10;96.80
53748;DHT22;39655;53.210;5.768;2022-12-20T16:33:19;9.10;96.80
53748;DHT22;39655;53.210;5.768;2022-12-20T16:35:45;9.10;96.80
53748;DHT22;39655;53.210;5.768;2022-12-20T16:38:11;9.10;96.90
53748;DHT22;39655;53.210;5.768;2022-12-20T16:40:37;9.10;96.90
53748;DHT22;39655;53.210;5.768;2022-12-20T16:43:03;9.10;96.90
53748;DHT22;39655;53.210;5.768;2022-12-20T16:45:30;9.10;96.90
53748;DHT22;39655;53.210;5.768;2022-12-20T16:47:56;9.10;96.90
53748;DHT22;39655;53.210;5.768;2022-12-20T16:50:24;9.10;96.90
53748;DHT22;39655;53.210;5.768;2022-12-20T16:52:50;9.10;97.00
53748;DHT22;39655;53.210;5.768;2022-12-20T16:55:20;9.10;97.00
53748;DHT22;39655;53.210;5.768;2022-12-20T16:57:46;9.10;97.00
53748;DHT22;39655;53.210;5.768;2022-12-20T17:00:22;9.10;97.00
53748;DHT22;39655;53.210;5.768;2022-12-20T17:02:51;9.00;97.00
53748;DHT22;39655;53.210;5.768;2022-12-20T17:05:24;9.00;97.00
53748;DHT22;39655;53.210;5.768;2022-12-20T17:07:50;9.00;97.00
53748;DHT22;39655;53.210;5.768;2022-12-20T17:10:18;9.00;97.00
53748;DHT22;39655;53.210;5.768;2022-12-20T17:12:45;9.00;97.00
53748;DHT22;39655;53.210;5.768;2022-12-20T17:15:20;9.00;97.10
53748;DHT22;39655;53.210;5.768;2022-12-20T17:17:47;9.00;97.10
53748;DHT22;39655;53.210;5.768;2022-12-20T17:20:14;9.00;97.10
53748;DHT22;39655;53.210;5.768;2022-12-20T17:22:40;9.00;97.10
53748;DHT22;39655;53.210;5.768;2022-12-20T17:25:32;9.00;97.10
53748;DHT22;39655;53.210;5.768;2022-12-20T17:27:58;9.00;97.10
53748;DHT22;39655;53.210;5.768;2022-12-20T17:30:24;9.00;97.10
53748;DHT22;39655;53.210;5.768;2022-12-20T17:32:51;9.00;97.20
53748;DHT22;39655;53.210;5.768;2022-12-20T17:35:29;9.00;97.20
53748;DHT22;39655;53.210;5.768;2022-12-20T17:37:56;9.00;97.20
53748;DHT22;39655;53.210;5.768;2022-12-20T17:40:24;9.00;97.20
53748;DHT22;39655;53.210;5.768;2022-12-20T17:42:50;9.00;97.20
53748;DHT22;39655;53.210;5.768;2022-12-20T17:45:25;8.90;97.20
53748;DHT22;39655;53.210;5.768;2022-12-20T17:47:52;8.90;97.10
53748;DHT22;39655;53.210;5.768;2022-12-20T17:50:18;8.90;97.20
53748;DHT22;39655;53.210;5.768;2022-12-20T17:52:45;8.90;97.20
53748;DHT22;39655;53.210;5.768;2022-12-20T17:55:21;8.90;97.20
53748;DHT22;39655;53.210;5.768;2022-12-20T17:57:47;8.90;97.20
53748;DHT22;39655;53.210;5.768;2022-12-20T18:00:25;8.90;97.20
53748;DHT22;39655;53.210;5.768;2022-12-20T18:02:51;8.90;97.20